Time;durP1;ratioP1;P1;durP2;ratioP2;P2;SDS_P1;SDS_P2;PMS_P1;PMS_P2;Temp;Humidity;BMP_temperature;BMP_pressure;BME280_temperature;BME280_humidity;BME280_pressure;Samples;Min_cycle;Max_cycle;Signal;HPM_P1;HPM_P2
2023/06/21 00:00:41;;;;;;;5.53;5.03;;;20.00;99.90;;;;;;5067838;27;20639;-69
2023/06/21 00:03:08;;;;;;;7.63;5.00;;;20.10;99.90;;;;;;5072231;27;20646;-69
2023/06/21 00:05:38;;;;;;;5.20;4.70;;;20.00;99.90;;;;;;5082109;27;20643;-68
2023/06/21 00:08:05;;;;;;;6.57;5.83;;;20.00;99.90;;;;;;5072455;27;20631;-69
2023/06/21 00:10:34;;;;;;;6.23;5.10;;;20.00;99.90;;;;;;5079612;27;20643;-69
2023/06/21 00:13:01;;;;;;;5.73;5.23;;;20.10;99.90;;;;;;5074979;27;20611;-69
2023/06/21 00:15:28;;;;;;;6.80;5.50;;;19.80;99.90;;;;;;5082109;27;21240;-69
2023/06/21 00:17:55;;;;;;;5.53;5.03;;;19.80;99.90;;;;;;5095571;27;20633;-68
2023/06/21 00:20:21;;;;;;;5.37;4.87;;;19.70;99.90;;;;;;5094003;27;20623;-69
2023/06/21 00:22:55;;;;;;;7.90;6.43;;;19.60;99.90;;;;;;5076554;27;20636;-69
2023/06/21 00:25:23;;;;;;;5.03;4.53;;;19.60;99.90;;;;;;5068681;27;20630;-69
2023/06/21 00:27:51;;;;;;;10.50;5.67;;;19.60;99.90;;;;;;5088355;27;20615;-69
2023/06/21 00:30:18;;;;;;;6.93;5.70;;;19.70;99.90;;;;;;5080455;27;20619;-69
2023/06/21 00:32:45;;;;;;;6.87;5.30;;;19.70;99.90;;;;;;5083164;27;20627;-69
2023/06/21 00:35:12;;;;;;;6.40;5.80;;;19.70;99.90;;;;;;5054763;27;20659;-69
2023/06/21 00:37:39;;;;;;;6.70;5.37;;;19.70;99.90;;;;;;5094691;27;20646;-69
2023/06/21 00:40:10;;;;;;;5.60;5.10;;;19.60;99.90;;;;;;5085173;27;20616;-69
2023/06/21 00:42:37;;;;;;;5.13;4.60;;;19.60;99.90;;;;;;5036949;27;20633;-69
2023/06/21 00:45:07;;;;;;;8.53;5.43;;;19.80;99.90;;;;;;5078867;27;20623;-69
2023/06/21 00:47:34;;;;;;;6.10;4.90;;;19.70;99.90;;;;;;5080973;27;21123;-69
2023/06/21 00:50:01;;;;;;;6.20;5.60;;;19.60;99.90;;;;;;5081343;27;20623;-68
2023/06/21 00:52:28;;;;;;;5.13;4.70;;;19.50;99.90;;;;;;5021614;28;20694;-69
2023/06/21 00:54:56;;;;;;;5.40;4.90;;;19.60;99.90;;;;;;5071197;27;20611;-69
2023/06/21 00:57:22;;;;;;;6.67;6.00;;;19.50;99.90;;;;;;5086544;27;20739;-69
2023/06/21 00:59:49;;;;;;;11.17;5.17;;;19.50;99.90;;;;;;5036941;28;20630;-69
2023/06/21 01:02:18;;;;;;;6.03;4.67;;;19.40;99.90;;;;;;5081601;27;21740;-69
2023/06/21 01:04:46;;;;;;;7.60;5.10;;;19.30;99.90;;;;;;5077981;27;20627;-68
2023/06/21 01:07:22;;;;;;;6.87;6.03;;;19.30;99.90;;;;;;5093159;27;21009;-68
2023/06/21 01:10:04;;;;;;;5.70;5.20;;;19.30;99.90;;;;;;5046398;27;21135;-69
2023/06/21 01:12:41;;;;;;;6.23;5.10;;;19.30;99.90;;;;;;5085165;27;20619;-69
2023/06/21 01:15:16;;;;;;;6.93;6.00;;;19.20;99.90;;;;;;5080521;27;20627;-68
2023/06/21 01:17:51;;;;;;;5.50;5.00;;;19.30;99.90;;;;;;5089938;27;20721;-68
2023/06/21 01:20:24;;;;;;;6.97;5.90;;;19.30;99.90;;;;;;5093085;27;20638;-69
2023/06/21 01:23:01;;;;;;;6.07;5.37;;;19.40;99.90;;;;;;5052275;27;20636;-69
2023/06/21 01:25:41;;;;;;;6.63;6.03;;;19.30;99.90;;;;;;5081307;27;20657;-68
2023/06/21 01:28:24;;;;;;;5.53;5.00;;;19.40;99.90;;;;;;5047858;27;20987;-68
2023/06/21 01:30:57;;;;;;;6.53;4.57;;;19.30;99.90;;;;;;5087885;27;20662;-69
2023/06/21 01:33:25;;;;;;;5.73;5.27;;;19.20;99.90;;;;;;5046218;27;20622;-68
2023/06/21 01:35:54;;;;;;;6.27;5.67;;;19.30;99.90;;;;;;5037572;27;20766;-69
2023/06/21 01:38:23;;;;;;;5.93;5.33;;;19.10;99.90;;;;;;5065225;27;20627;-69
2023/06/21 01:40:51;;;;;;;9.53;5.80;;;19.10;99.90;;;;;;5079511;27;21048;-69
2023/06/21 01:43:20;;;;;;;6.40;5.50;;;19.10;99.90;;;;;;5034546;28;20626;-69
2023/06/21 01:45:50;;;;;;;4.50;4.10;;;19.10;99.90;;;;;;5080588;27;20683;-68
2023/06/21 01:48:19;;;;;;;5.80;5.20;;;19.10;99.90;;;;;;5090397;27;20673;-69
2023/06/21 01:50:48;;;;;;;6.23;5.63;;;19.10;99.90;;;;;;5087658;27;21146;-69
2023/06/21 01:53:16;;;;;;;7.00;5.87;;;19.10;99.90;;;;;;5078554;27;20631;-69
2023/06/21 01:55:49;;;;;;;7.73;6.93;;;19.10;99.90;;;;;;5080864;27;20758;-69
2023/06/21 01:58:18;;;;;;;5.60;4.70;;;19.20;99.90;;;;;;5084102;27;20638;-69
2023/06/21 02:00:45;;;;;;;5.40;4.53;;;19.20;99.90;;;;;;5063773;27;20655;-69
2023/06/21 02:03:15;;;;;;;7.43;5.37;;;19.20;99.90;;;;;;5071624;27;20956;-68
2023/06/21 02:05:47;;;;;;;6.03;5.43;;;19.20;99.90;;;;;;5043871;27;21345;-68
2023/06/21 02:08:16;;;;;;;6.43;5.27;;;19.30;99.90;;;;;;5086463;27;20607;-69
2023/06/21 02:10:44;;;;;;;6.47;5.33;;;19.30;99.90;;;;;;5079409;27;20999;-69
2023/06/21 02:13:12;;;;;;;7.33;6.63;;;19.30;99.90;;;;;;5076672;27;20658;-68
2023/06/21 02:15:40;;;;;;;6.07;5.30;;;19.30;99.90;;;;;;5078517;27;20651;-68
2023/06/21 02:18:08;;;;;;;6.50;5.80;;;19.20;99.90;;;;;;5080291;27;21239;-68
2023/06/21 02:20:35;;;;;;;5.60;5.20;;;19.20;99.90;;;;;;5079679;27;20655;-69
2023/06/21 02:23:03;;;;;;;5.50;4.50;;;19.20;99.90;;;;;;5092914;27;20611;-68
2023/06/21 02:25:35;;;;;;;5.60;5.00;;;19.10;99.90;;;;;;5071433;27;20651;-68
2023/06/21 02:28:03;;;;;;;7.90;5.70;;;19.20;99.90;;;;;;5079970;27;20623;-68
2023/06/21 02:30:30;;;;;;;5.93;5.00;;;19.20;99.90;;;;;;5078180;27;20704;-68
2023/06/21 02:32:57;;;;;;;6.13;5.53;;;19.20;99.90;;;;;;5087107;27;20637;-69
2023/06/21 02:35:25;;;;;;;5.00;4.43;;;19.20;99.90;;;;;;5092841;28;20651;-68
2023/06/21 02:37:53;;;;;;;6.90;6.20;;;19.10;99.90;;;;;;5091552;28;20631;-68
2023/06/21 02:40:21;;;;;;;6.40;5.33;;;19.00;99.90;;;;;;5053791;28;20619;-69
2023/06/21 02:42:50;;;;;;;6.13;5.40;;;19.00;99.90;;;;;;5053410;28;20635;-69
2023/06/21 02:45:17;;;;;;;5.33;4.80;;;19.00;99.90;;;;;;5046826;28;20712;-68
2023/06/21 02:47:44;;;;;;;7.87;6.23;;;19.00;99.90;;;;;;5092603;28;20619;-68
2023/06/21 02:50:11;;;;;;;6.60;5.90;;;19.00;99.90;;;;;;5086177;28;20619;-69
2023/06/21 02:52:38;;;;;;;5.97;5.37;;;18.90;99.90;;;;;;5080067;28;20629;-68
2023/06/21 02:55:07;;;;;;;5.50;5.00;;;18.90;99.90;;;;;;5076886;27;20967;-68
2023/06/21 02:57:36;;;;;;;6.27;5.67;;;18.80;99.90;;;;;;5042875;28;20666;-67
2023/06/21 03:00:17;;;;;;;6.23;4.83;;;18.80;99.90;;;;;;5055765;28;20663;-69
2023/06/21 03:02:44;;;;;;;5.63;4.73;;;18.80;99.90;;;;;;5045888;28;20727;-68
2023/06/21 03:05:13;;;;;;;5.20;4.70;;;18.80;99.90;;;;;;5039406;27;21199;-68
2023/06/21 03:07:43;;;;;;;5.27;4.43;;;18.80;99.90;;;;;;5090386;28;20642;-68
2023/06/21 03:10:12;;;;;;;6.03;5.50;;;18.90;99.90;;;;;;5084761;28;20624;-69
2023/06/21 03:12:42;;;;;;;4.70;4.30;;;18.90;99.90;;;;;;5084454;27;20615;-68
2023/06/21 03:15:10;;;;;;;5.97;4.80;;;19.00;99.90;;;;;;5081943;27;20619;-69
2023/06/21 03:17:38;;;;;;;6.90;6.20;;;18.90;99.90;;;;;;5087612;27;21339;-68
2023/06/21 03:20:12;;;;;;;5.00;4.50;;;18.90;99.90;;;;;;5085526;27;20730;-68
2023/06/21 03:22:39;;;;;;;4.63;4.23;;;18.80;99.90;;;;;;5094252;27;20747;-68
2023/06/21 03:25:06;;;;;;;8.27;6.13;;;18.80;99.90;;;;;;5060051;27;20650;-68
2023/06/21 03:27:33;;;;;;;8.20;5.97;;;18.80;99.90;;;;;;5096396;27;20619;-68
2023/06/21 03:30:01;;;;;;;6.00;5.27;;;19.00;99.90;;;;;;5085140;27;20622;-68
2023/06/21 03:32:28;;;;;;;9.03;5.43;;;19.10;99.90;;;;;;5081987;27;20639;-68
2023/06/21 03:34:58;;;;;;;5.00;4.53;;;19.20;99.90;;;;;;5068330;27;20641;-68
2023/06/21 03:37:25;;;;;;;5.50;5.00;;;19.10;99.90;;;;;;5090951;27;20669;-68
2023/06/21 03:39:52;;;;;;;8.20;5.23;;;19.20;99.90;;;;;;5078890;27;20655;-68
2023/06/21 03:42:19;;;;;;;5.43;4.93;;;19.10;99.90;;;;;;5045884;27;20670;-68
2023/06/21 03:44:46;;;;;;;5.70;5.03;;;19.00;99.90;;;;;;5053318;27;20722;-68
2023/06/21 03:47:14;;;;;;;5.50;4.87;;;18.90;99.90;;;;;;5089735;27;21234;-68
2023/06/21 03:49:41;;;;;;;6.43;5.43;;;18.90;99.90;;;;;;5094781;27;20626;-68
2023/06/21 03:52:08;;;;;;;7.10;5.93;;;19.00;99.90;;;;;;5073030;27;20644;-68
2023/06/21 03:54:35;;;;;;;5.77;5.07;;;19.10;99.90;;;;;;5057555;27;20658;-68
2023/06/21 03:57:05;;;;;;;6.27;5.57;;;19.10;99.90;;;;;;5057628;27;20669;-68
2023/06/21 03:59:32;;;;;;;5.77;5.27;;;19.20;99.90;;;;;;5076883;27;20625;-67
2023/06/21 04:01:59;;;;;;;5.80;5.03;;;19.10;99.90;;;;;;5082273;27;21250;-68
2023/06/21 04:04:27;;;;;;;5.90;5.30;;;19.30;99.90;;;;;;5057402;27;20662;-70
2023/06/21 04:06:53;;;;;;;5.23;4.83;;;19.20;99.90;;;;;;5095298;27;20647;-69
2023/06/21 04:09:20;;;;;;;5.97;5.00;;;19.00;99.90;;;;;;5094517;27;20619;-69
2023/06/21 04:11:47;;;;;;;6.47;5.47;;;18.90;99.90;;;;;;5043747;27;20653;-69
2023/06/21 04:14:16;;;;;;;6.70;5.97;;;19.00;99.90;;;;;;5054615;27;20623;-70
2023/06/21 04:16:44;;;;;;;6.13;5.53;;;19.00;99.90;;;;;;5090106;27;21317;-69
2023/06/21 04:19:11;;;;;;;5.37;4.87;;;19.00;99.90;;;;;;5093894;27;20619;-69
2023/06/21 04:21:39;;;;;;;7.27;5.80;;;19.00;99.90;;;;;;5054743;27;20689;-68
2023/06/21 04:24:06;;;;;;;6.93;5.70;;;19.10;99.90;;;;;;5095225;27;20623;-69
2023/06/21 04:26:33;;;;;;;6.20;5.70;;;19.10;99.90;;;;;;5095410;27;20782;-70
2023/06/21 04:29:01;;;;;;;6.33;5.43;;;19.10;99.90;;;;;;5049043;27;22075;-68
2023/06/21 04:31:28;;;;;;;6.00;4.90;;;19.10;99.90;;;;;;5061940;27;20740;-68
2023/06/21 04:33:54;;;;;;;6.13;5.53;;;19.00;99.90;;;;;;5079240;27;20659;-68
2023/06/21 04:36:21;;;;;;;7.07;6.13;;;19.10;99.90;;;;;;5081261;27;20649;-70
2023/06/21 04:38:49;;;;;;;5.20;4.80;;;19.20;99.90;;;;;;5081182;27;20627;-69
2023/06/21 04:41:17;;;;;;;5.50;4.90;;;19.20;99.90;;;;;;5034055;27;20631;-69
2023/06/21 04:43:43;;;;;;;6.90;4.90;;;19.30;99.90;;;;;;5069757;27;20619;-70
2023/06/21 04:46:10;;;;;;;6.60;6.00;;;19.30;99.90;;;;;;5086639;27;20932;-70
2023/06/21 04:48:37;;;;;;;7.27;6.03;;;19.30;99.90;;;;;;5081266;27;21182;-70
2023/06/21 04:51:04;;;;;;;6.23;5.63;;;19.20;99.90;;;;;;5082622;27;20651;-70
2023/06/21 04:53:32;;;;;;;5.93;5.43;;;19.30;99.90;;;;;;5061015;27;20722;-69
2023/06/21 04:56:00;;;;;;;7.83;5.60;;;19.30;99.90;;;;;;5059676;27;20663;-68
2023/06/21 04:58:27;;;;;;;8.87;5.63;;;19.30;99.90;;;;;;5078501;27;20774;-69
2023/06/21 05:00:54;;;;;;;6.03;5.13;;;19.40;99.90;;;;;;5062028;27;20731;-69
2023/06/21 05:03:21;;;;;;;6.90;5.33;;;19.50;99.90;;;;;;5089710;27;20627;-69
2023/06/21 05:05:48;;;;;;;5.67;4.80;;;19.60;99.90;;;;;;5061162;27;20653;-69
2023/06/21 05:08:15;;;;;;;6.53;5.47;;;19.70;99.90;;;;;;5080613;27;21265;-68
2023/06/21 05:10:42;;;;;;;7.03;5.50;;;19.70;99.90;;;;;;5092706;27;20749;-71
2023/06/21 05:13:10;;;;;;;5.77;5.17;;;19.80;99.90;;;;;;5072679;27;20638;-71
2023/06/21 05:15:36;;;;;;;8.23;5.53;;;19.90;99.90;;;;;;5032658;27;20658;-71
2023/06/21 05:18:05;;;;;;;5.50;4.70;;;19.80;99.90;;;;;;5094576;27;20665;-71
2023/06/21 05:20:32;;;;;;;5.53;4.90;;;19.90;99.90;;;;;;5092766;27;20739;-71
2023/06/21 05:22:59;;;;;;;5.73;5.23;;;20.00;99.90;;;;;;5072118;27;20623;-72
2023/06/21 05:25:25;;;;;;;7.60;4.80;;;20.10;99.90;;;;;;5080596;27;20653;-72
2023/06/21 05:27:52;;;;;;;4.70;4.30;;;20.10;99.90;;;;;;5089148;27;20627;-71
2023/06/21 05:30:20;;;;;;;8.50;5.03;;;20.20;99.90;;;;;;5092798;27;20616;-70
2023/06/21 05:32:47;;;;;;;5.70;5.10;;;20.20;99.90;;;;;;5080791;27;21185;-71
2023/06/21 05:35:14;;;;;;;7.23;5.20;;;20.20;99.90;;;;;;5046962;27;20637;-70
2023/06/21 05:37:41;;;;;;;5.57;5.00;;;20.40;99.90;;;;;;5041440;27;20669;-70
2023/06/21 05:40:10;;;;;;;5.40;4.63;;;20.50;99.90;;;;;;5089315;27;21274;-71
2023/06/21 05:42:37;;;;;;;5.77;4.57;;;20.60;99.90;;;;;;5059253;27;20635;-71
2023/06/21 05:45:05;;;;;;;4.40;4.03;;;20.60;99.90;;;;;;5078912;27;20627;-71
2023/06/21 05:47:33;;;;;;;5.60;4.60;;;20.50;99.90;;;;;;5060210;27;20623;-72
2023/06/21 05:50:00;;;;;;;6.30;4.40;;;20.60;99.90;;;;;;5079764;27;20739;-72
2023/06/21 05:52:27;;;;;;;7.37;5.57;;;20.70;99.90;;;;;;5093679;27;20694;-72
2023/06/21 05:54:54;;;;;;;6.40;5.80;;;20.80;99.90;;;;;;5074856;27;21178;-71
2023/06/21 05:57:20;;;;;;;5.73;5.13;;;20.80;99.90;;;;;;5085012;27;21034;-70
2023/06/21 05:59:47;;;;;;;5.77;5.27;;;20.90;99.90;;;;;;5053889;27;20627;-70
2023/06/21 06:02:14;;;;;;;6.37;5.70;;;20.90;99.90;;;;;;5044376;27;21259;-69
2023/06/21 06:04:42;;;;;;;6.63;4.83;;;20.80;99.90;;;;;;5025052;27;20635;-69
2023/06/21 06:07:09;;;;;;;5.77;5.27;;;21.00;99.90;;;;;;5031844;28;20653;-69
2023/06/21 06:09:36;;;;;;;9.03;6.50;;;21.10;99.90;;;;;;5049004;27;20693;-69
2023/06/21 06:12:03;;;;;;;7.83;6.10;;;21.10;99.90;;;;;;5029566;27;20651;-67
2023/06/21 06:14:31;;;;;;;7.60;6.70;;;21.00;99.90;;;;;;5028242;28;20632;-67
2023/06/21 06:16:58;;;;;;;6.10;5.50;;;21.10;99.90;;;;;;5032767;28;20761;-69
2023/06/21 06:19:24;;;;;;;7.07;6.37;;;21.20;99.90;;;;;;5066388;27;20756;-68
2023/06/21 06:21:52;;;;;;;7.43;6.40;;;21.20;99.90;;;;;;5078414;27;21211;-67
2023/06/21 06:24:19;;;;;;;6.17;5.50;;;21.20;99.90;;;;;;5039506;27;20732;-68
2023/06/21 06:26:46;;;;;;;6.03;4.90;;;21.20;99.90;;;;;;5037033;28;20663;-68
2023/06/21 06:29:13;;;;;;;5.70;4.67;;;21.20;99.90;;;;;;5058092;27;20623;-68
2023/06/21 06:31:39;;;;;;;5.70;5.10;;;21.10;99.90;;;;;;5062116;28;20671;-68
2023/06/21 06:34:06;;;;;;;5.33;4.43;;;21.20;99.90;;;;;;5023785;28;20622;-68
2023/06/21 06:36:33;;;;;;;5.33;4.83;;;21.40;99.90;;;;;;5022192;28;20943;-68
2023/06/21 06:39:01;;;;;;;5.20;4.70;;;21.60;99.90;;;;;;5028792;28;20672;-68
2023/06/21 06:41:28;;;;;;;4.63;4.20;;;21.60;99.90;;;;;;5074179;28;20659;-68
2023/06/21 06:43:55;;;;;;;5.30;4.27;;;21.70;99.90;;;;;;5040943;28;20631;-68
2023/06/21 06:46:22;;;;;;;6.17;4.53;;;21.70;99.90;;;;;;5087159;28;20651;-68
2023/06/21 06:48:48;;;;;;;4.67;4.27;;;21.80;99.90;;;;;;5062767;28;20642;-68
2023/06/21 06:51:15;;;;;;;4.67;4.23;;;21.90;99.90;;;;;;5067359;27;20649;-67
2023/06/21 06:53:42;;;;;;;5.80;4.37;;;21.80;99.90;;;;;;5041836;27;20637;-67
2023/06/21 06:56:11;;;;;;;8.00;4.67;;;21.90;99.90;;;;;;5042446;27;20651;-67
2023/06/21 06:58:38;;;;;;;6.70;4.93;;;21.90;99.90;;;;;;5074573;27;20677;-67
2023/06/21 07:01:05;;;;;;;4.97;4.13;;;22.00;99.90;;;;;;5030540;27;20659;-67
2023/06/21 07:03:32;;;;;;;6.67;4.93;;;22.10;99.90;;;;;;5052888;27;21169;-67
2023/06/21 07:05:59;;;;;;;7.40;5.10;;;22.20;99.90;;;;;;5028022;27;21336;-67
2023/06/21 07:08:26;;;;;;;6.60;5.60;;;22.40;99.90;;;;;;5034503;27;20626;-67
2023/06/21 07:10:53;;;;;;;6.03;5.47;;;22.40;99.90;;;;;;5040989;27;20657;-67
2023/06/21 07:13:23;;;;;;;5.00;4.60;;;22.20;99.90;;;;;;5032585;27;21208;-68
2023/06/21 07:15:50;;;;;;;5.17;4.27;;;22.40;99.90;;;;;;5025774;28;20680;-67
2023/06/21 07:18:17;;;;;;;4.10;3.70;;;22.40;99.90;;;;;;5101364;27;20663;-68
2023/06/21 07:20:43;;;;;;;7.40;4.60;;;22.40;99.90;;;;;;5075373;27;20655;-67
2023/06/21 07:23:11;;;;;;;4.60;4.20;;;22.40;99.90;;;;;;5041942;27;21118;-67
2023/06/21 07:25:38;;;;;;;7.97;4.20;;;22.70;99.90;;;;;;5041064;27;20663;-66
2023/06/21 07:28:05;;;;;;;4.57;4.17;;;22.80;99.90;;;;;;5041284;27;20622;-67
2023/06/21 07:30:33;;;;;;;6.50;4.50;;;23.10;99.90;;;;;;5048723;27;20653;-67
2023/06/21 07:32:59;;;;;;;4.90;4.50;;;23.30;99.90;;;;;;5021596;27;20634;-67
2023/06/21 07:35:26;;;;;;;5.20;4.70;;;23.50;99.70;;;;;;5023112;28;20652;-67
2023/06/21 07:37:53;;;;;;;5.23;4.47;;;23.60;99.60;;;;;;5044036;27;20678;-67
2023/06/21 07:40:20;;;;;;;5.37;4.57;;;23.60;99.90;;;;;;5048405;27;20940;-67
2023/06/21 07:42:48;;;;;;;5.23;4.73;;;23.50;99.20;;;;;;5028788;27;20659;-67
2023/06/21 07:45:15;;;;;;;5.47;4.10;;;23.50;99.20;;;;;;5035113;27;21278;-67
2023/06/21 07:47:43;;;;;;;5.63;5.13;;;23.40;99.30;;;;;;5067024;27;20623;-67
2023/06/21 07:50:10;;;;;;;6.10;4.57;;;23.30;99.90;;;;;;5075911;27;20624;-67
2023/06/21 07:52:37;;;;;;;6.10;5.57;;;23.10;99.30;;;;;;5083040;27;20642;-68
2023/06/21 07:55:05;;;;;;;5.50;4.97;;;23.10;99.90;;;;;;5061606;27;20679;-67
2023/06/21 07:57:32;;;;;;;6.40;4.57;;;23.10;99.90;;;;;;5036889;27;20671;-67
2023/06/21 08:00:08;;;;;;;5.70;4.20;;;23.00;99.90;;;;;;5051415;27;20623;-67
2023/06/21 08:02:36;;;;;;;6.07;4.90;;;23.10;99.90;;;;;;5029247;28;20976;-67
2023/06/21 08:05:04;;;;;;;4.10;3.70;;;23.10;99.90;;;;;;5075648;27;20643;-67
2023/06/21 08:07:31;;;;;;;3.47;3.17;;;23.30;99.90;;;;;;5047000;27;20627;-68
2023/06/21 08:09:58;;;;;;;5.17;4.53;;;23.40;99.90;;;;;;5037604;27;20733;-67
2023/06/21 08:12:25;;;;;;;4.43;3.10;;;23.30;99.90;;;;;;5067508;27;20655;-67
2023/06/21 08:14:51;;;;;;;3.73;3.43;;;23.30;99.90;;;;;;5035047;27;20629;-68
2023/06/21 08:17:18;;;;;;;4.40;4.00;;;23.20;99.90;;;;;;5029044;27;21228;-67
2023/06/21 08:19:45;;;;;;;4.13;3.43;;;23.10;99.90;;;;;;5079370;27;20661;-68
2023/06/21 08:22:13;;;;;;;3.60;3.30;;;22.90;99.90;;;;;;5096726;27;20643;-67
2023/06/21 08:24:40;;;;;;;3.33;3.00;;;22.70;99.90;;;;;;5064896;27;20659;-67
2023/06/21 08:27:08;;;;;;;4.30;3.33;;;22.60;99.90;;;;;;5062463;27;20647;-67
2023/06/21 08:29:34;;;;;;;3.77;3.47;;;22.40;99.90;;;;;;5021821;28;20643;-67
2023/06/21 08:32:03;;;;;;;4.47;4.00;;;22.40;99.90;;;;;;5024280;28;20671;-67
2023/06/21 08:34:30;;;;;;;5.87;4.13;;;22.40;99.90;;;;;;5033426;28;20634;-67
2023/06/21 08:36:56;;;;;;;5.30;4.80;;;22.30;99.90;;;;;;5038736;27;20977;-68
2023/06/21 08:39:25;;;;;;;4.97;3.63;;;22.30;99.90;;;;;;5046882;27;20659;-68
2023/06/21 08:41:53;;;;;;;3.93;3.57;;;22.20;99.90;;;;;;5036083;27;21234;-68
2023/06/21 08:44:19;;;;;;;4.23;3.83;;;22.30;99.90;;;;;;5019686;28;20635;-67
2023/06/21 08:46:48;;;;;;;3.33;3.03;;;22.30;99.90;;;;;;5040993;27;20650;-69
2023/06/21 08:49:19;;;;;;;5.30;3.37;;;22.30;99.90;;;;;;5037411;27;20996;-68
2023/06/21 08:51:46;;;;;;;4.47;3.63;;;22.20;99.90;;;;;;5092918;27;20758;-68
2023/06/21 08:54:15;;;;;;;4.60;3.70;;;22.20;99.90;;;;;;5042938;27;20634;-68
2023/06/21 08:56:50;;;;;;;3.67;3.23;;;22.10;99.90;;;;;;5050479;27;20661;-68
2023/06/21 08:59:22;;;;;;;5.47;3.40;;;22.00;99.90;;;;;;5066152;27;20659;-68
2023/06/21 09:01:55;;;;;;;4.43;3.07;;;22.00;99.90;;;;;;5036346;28;21329;-68
2023/06/21 09:04:26;;;;;;;3.77;3.43;;;21.90;99.90;;;;;;5061869;27;20635;-68
2023/06/21 09:06:55;;;;;;;4.47;3.40;;;21.80;99.90;;;;;;5031548;28;20659;-68
2023/06/21 09:09:24;;;;;;;4.07;3.60;;;21.70;99.90;;;;;;5066335;27;21224;-68
2023/06/21 09:11:53;;;;;;;6.37;3.70;;;21.80;99.90;;;;;;5026432;27;21014;-68
2023/06/21 09:14:21;;;;;;;6.50;4.13;;;21.80;99.90;;;;;;5074714;27;20611;-68
2023/06/21 09:16:48;;;;;;;5.10;4.40;;;21.60;99.90;;;;;;5050409;27;20662;-68
2023/06/21 09:19:15;;;;;;;5.80;4.70;;;21.50;99.90;;;;;;5036934;27;20669;-68
2023/06/21 09:21:43;;;;;;;7.30;5.80;;;21.40;99.90;;;;;;5053428;27;21058;-68
2023/06/21 09:24:10;;;;;;;10.63;8.83;;;21.30;99.90;;;;;;5032230;27;20731;-68
2023/06/21 09:26:38;;;;;;;9.77;8.87;;;21.30;99.90;;;;;;5034705;27;21073;-68
2023/06/21 09:29:06;;;;;;;9.70;8.70;;;21.00;99.90;;;;;;5057708;27;20620;-68
2023/06/21 09:31:33;;;;;;;9.20;7.63;;;21.00;99.90;;;;;;5050337;27;20763;-69
2023/06/21 09:34:00;;;;;;;6.60;6.00;;;20.90;99.90;;;;;;5035608;28;21408;-69
2023/06/21 09:36:27;;;;;;;10.63;4.97;;;21.00;99.90;;;;;;5094144;27;20646;-68
2023/06/21 09:39:07;;;;;;;7.03;5.43;;;21.10;99.90;;;;;;5041134;27;20671;-68
2023/06/21 09:41:34;;;;;;;7.00;5.43;;;21.30;99.90;;;;;;5061405;27;21297;-69
2023/06/21 09:44:00;;;;;;;5.57;4.90;;;21.20;99.90;;;;;;5019399;28;21027;-68
2023/06/21 09:46:29;;;;;;;5.60;4.97;;;21.00;99.90;;;;;;5027744;28;20750;-68
2023/06/21 09:49:07;;;;;;;6.03;4.90;;;21.00;99.90;;;;;;5068630;27;20631;-68
2023/06/21 09:51:33;;;;;;;6.77;5.60;;;20.60;99.90;;;;;;5049587;27;21195;-68
2023/06/21 09:54:05;;;;;;;5.50;5.03;;;20.60;99.90;;;;;;5037611;27;20627;-68
2023/06/21 09:56:34;;;;;;;6.07;4.67;;;20.70;99.90;;;;;;5023359;28;21222;-68
2023/06/21 09:59:02;;;;;;;7.17;5.23;;;20.70;99.90;;;;;;5031925;28;20705;-69
2023/06/21 10:01:38;;;;;;;6.07;5.47;;;20.50;99.90;;;;;;5030829;28;20756;-69
2023/06/21 10:04:13;;;;;;;7.33;5.20;;;20.50;99.90;;;;;;5027587;28;20655;-68
2023/06/21 10:06:48;;;;;;;6.93;4.80;;;20.50;99.90;;;;;;5030890;27;21226;-69
2023/06/21 10:09:14;;;;;;;6.33;5.03;;;20.40;99.90;;;;;;5036751;28;20625;-69
2023/06/21 10:11:43;;;;;;;6.77;4.90;;;20.30;99.90;;;;;;5090650;27;21011;-69
2023/06/21 10:14:18;;;;;;;5.20;4.80;;;20.30;99.90;;;;;;5066067;27;20627;-68
2023/06/21 10:16:51;;;;;;;6.17;5.40;;;20.30;99.90;;;;;;5093031;27;20650;-68
2023/06/21 10:19:21;;;;;;;7.00;4.80;;;20.30;99.90;;;;;;5092768;27;21222;-69
2023/06/21 10:21:51;;;;;;;5.10;4.60;;;20.30;99.90;;;;;;5049739;27;20655;-69
2023/06/21 10:24:19;;;;;;;5.17;4.67;;;20.40;99.90;;;;;;5058187;27;20633;-70
2023/06/21 10:26:49;;;;;;;5.93;5.33;;;20.40;99.90;;;;;;5044070;28;21038;-69
2023/06/21 10:29:17;;;;;;;7.20;5.67;;;20.40;99.90;;;;;;5078441;27;20794;-70
2023/06/21 10:31:45;;;;;;;7.67;6.63;;;20.50;99.90;;;;;;5030176;27;20992;-70
2023/06/21 10:34:20;;;;;;;6.20;5.60;;;20.50;99.90;;;;;;5079610;27;21258;-70
2023/06/21 10:36:52;;;;;;;5.83;5.20;;;20.60;99.90;;;;;;5075728;28;20742;-69
2023/06/21 10:39:23;;;;;;;7.27;5.57;;;20.80;99.90;;;;;;5046826;28;21246;-70
2023/06/21 10:41:51;;;;;;;7.10;5.60;;;20.90;99.90;;;;;;5041142;28;20651;-69
2023/06/21 10:44:19;;;;;;;9.37;7.63;;;20.90;99.90;;;;;;5036159;28;20749;-69
2023/06/21 10:46:47;;;;;;;6.60;6.00;;;21.00;99.90;;;;;;5083104;28;20661;-70
2023/06/21 10:49:17;;;;;;;5.80;5.17;;;21.10;99.90;;;;;;5080931;28;20619;-69
2023/06/21 10:51:46;;;;;;;7.40;6.70;;;21.20;99.90;;;;;;5034307;28;20703;-69
2023/06/21 10:54:13;;;;;;;8.70;5.70;;;21.20;99.90;;;;;;5034201;28;21016;-69
2023/06/21 10:56:40;;;;;;;5.90;5.40;;;21.30;99.90;;;;;;5052856;27;20669;-68
2023/06/21 10:59:07;;;;;;;7.47;5.97;;;21.40;99.90;;;;;;5073721;27;21021;-68
2023/06/21 11:01:34;;;;;;;5.50;5.00;;;21.50;99.90;;;;;;5029731;28;20663;-69
2023/06/21 11:04:01;;;;;;;6.00;5.40;;;21.60;99.90;;;;;;5099884;28;20632;-69
2023/06/21 11:06:33;;;;;;;5.83;5.07;;;21.70;99.90;;;;;;5077212;28;20966;-68
2023/06/21 11:09:08;;;;;;;6.03;5.33;;;21.70;99.90;;;;;;5078722;28;20627;-68
2023/06/21 11:11:37;;;;;;;5.90;4.97;;;21.90;99.90;;;;;;5102068;28;20707;-69
2023/06/21 11:14:04;;;;;;;6.13;5.07;;;21.60;99.90;;;;;;5063816;28;20627;-68
2023/06/21 11:16:33;;;;;;;6.33;5.57;;;21.60;99.90;;;;;;5092063;27;20785;-68
2023/06/21 11:19:04;;;;;;;8.60;5.10;;;21.50;99.90;;;;;;5071472;27;20744;-68
2023/06/21 11:21:40;;;;;;;7.93;5.27;;;21.90;99.90;;;;;;5053637;28;20648;-69
2023/06/21 11:24:09;;;;;;;6.27;5.40;;;22.10;99.90;;;;;;5091343;28;20626;-69
2023/06/21 11:26:56;;;;;;;6.03;5.30;;;22.60;99.90;;;;;;5092320;28;21321;-69
2023/06/21 11:29:23;;;;;;;6.03;4.13;;;22.90;99.90;;;;;;5060814;27;21245;-69
2023/06/21 11:31:50;;;;;;;8.20;5.57;;;23.10;99.90;;;;;;5069802;28;20660;-68
2023/06/21 11:34:24;;;;;;;6.13;5.10;;;23.40;99.90;;;;;;5035126;28;20629;-68
2023/06/21 11:36:52;;;;;;;5.93;5.43;;;23.00;99.90;;;;;;5025400;27;20679;-69
2023/06/21 11:39:28;;;;;;;5.93;4.67;;;23.40;99.90;;;;;;5053361;27;20698;-69
2023/06/21 11:42:00;;;;;;;5.50;3.67;;;23.90;99.90;;;;;;5016813;28;20758;-68
2023/06/21 11:44:32;;;;;;;6.00;4.43;;;24.50;99.90;;;;;;5041545;27;20641;-69
2023/06/21 11:47:18;;;;;;;4.73;4.20;;;24.80;99.90;;;;;;5033095;27;20661;-69
2023/06/21 11:50:13;;;;;;;5.57;4.37;;;25.40;99.90;;;;;;5075812;27;20740;-68
2023/06/21 11:52:43;;;;;;;6.53;4.30;;;25.80;99.90;;;;;;5046509;27;20644;-69
2023/06/21 11:55:14;;;;;;;5.47;4.97;;;26.50;99.90;;;;;;5044677;27;20993;-69
2023/06/21 11:57:46;;;;;;;4.50;4.10;;;26.90;99.90;;;;;;5070280;27;21285;-68
2023/06/21 12:00:14;;;;;;;4.47;4.13;;;26.80;98.00;;;;;;5047761;27;21353;-69
2023/06/21 12:02:41;;;;;;;4.50;4.20;;;26.60;97.70;;;;;;5041135;27;20626;-69
2023/06/21 12:05:08;;;;;;;6.30;4.60;;;26.20;98.70;;;;;;5032650;28;20635;-69
2023/06/21 12:07:35;;;;;;;5.00;4.53;;;25.80;99.50;;;;;;5043641;27;20937;-68
2023/06/21 12:10:04;;;;;;;6.33;4.57;;;25.60;99.90;;;;;;5037245;27;20743;-69
2023/06/21 12:12:31;;;;;;;6.47;3.90;;;24.80;98.80;;;;;;5042550;27;20722;-69
2023/06/21 12:14:59;;;;;;;4.10;3.70;;;24.80;99.90;;;;;;5068538;27;20733;-68
2023/06/21 12:17:26;;;;;;;5.03;4.17;;;25.80;99.10;;;;;;5033797;27;20659;-69
2023/06/21 12:19:52;;;;;;;3.37;3.17;;;25.70;98.80;;;;;;5046295;27;20660;-68
2023/06/21 12:22:22;;;;;;;4.20;3.07;;;25.40;98.30;;;;;;5040010;27;20653;-68
2023/06/21 12:24:48;;;;;;;4.77;3.87;;;25.30;99.50;;;;;;5040992;27;20641;-68
2023/06/21 12:27:17;;;;;;;4.93;4.50;;;26.40;99.40;;;;;;5042029;27;20639;-68
2023/06/21 12:29:48;;;;;;;4.63;4.23;;;28.00;98.10;;;;;;5041481;27;20638;-68
2023/06/21 12:32:15;;;;;;;3.83;3.37;;;28.40;91.90;;;;;;5064372;27;20658;-68
2023/06/21 12:34:42;;;;;;;7.53;3.80;;;29.10;91.00;;;;;;5063100;27;20616;-69
2023/06/21 12:37:09;;;;;;;3.63;3.33;;;29.70;90.40;;;;;;5035565;28;20653;-68
2023/06/21 12:39:39;;;;;;;3.77;3.47;;;29.90;91.70;;;;;;5063558;27;20671;-68
2023/06/21 12:42:06;;;;;;;3.80;3.50;;;30.20;90.70;;;;;;5040845;27;21039;-68
2023/06/21 12:44:34;;;;;;;3.67;3.33;;;30.40;88.80;;;;;;5051547;27;20662;-68
2023/06/21 12:47:01;;;;;;;4.20;3.83;;;29.40;86.80;;;;;;5033932;28;20662;-68
2023/06/21 12:49:29;;;;;;;2.80;2.60;;;29.90;84.50;;;;;;5026839;28;20627;-68
2023/06/21 12:51:55;;;;;;;4.50;4.10;;;31.40;81.80;;;;;;5047603;27;20754;-68